Página principal
METAR-TAF:

METAR-TAF

Aeroportos :

Aeroporto Internacional do Bahrain

Bahrein, Bahrein

latitude: 26-16N, longitude: 050-39E, altura: 2 m

Observação actual do tempo

O boletim foi feito há 23 minutos, às 22:00 UTC
Vento 2 kt de es-nordeste
Temperatura 32°C
Humidade 71%
Pressão 1007 hPa
Visibilidade: 5000 m
Céu limpo
bruma

METAR: OBBI 222200Z 07002KT 5000 HZ SKC 32/26 Q1007 NOSIG

Hora: 01:23 (22:23 UTC)

Previsão

O boletim foi feito há 5 horas e 23 minutos, às 17:00 UTC
Previsão válida de 22 às 18 UTC a 24 às 00 UTC
Vento 5 kt com direcção variável
Visibilidade: 7000 m
Temporariamente
de 22 às 18 UTC a 23 às 06 UTC
Visibilidade: 4000 m
bruma

TAF: OBBI 221700Z 2218/2400 VRB05KT 7000 NSC TEMPO 2218/2306 4000 HZ

Observações e previsões do tempo de mais de 4000 aeroportos (mensagens METAR e TAF).

As estações disponíveis são os pontos amarelos e vermelhos sobre o mapa.

Mova o rato sobre o mapa para ver o nome da estação.

Depois clique no ponto para visualizar as observações e previsões meteorológicas.

Para alterar o mapa : clique nos botões verdes com uma cruz preta para aumentar o zoom; no botão verde com uma pitada de zoom; ou nas setas verdes para mapas adjacentes.


METAR-TAF: